Time;durP1;ratioP1;P1;durP2;ratioP2;P2;SDS_P1;SDS_P2;PMS_P1;PMS_P2;Temp;Humidity;BMP_temperature;BMP_pressure;BME280_temperature;BME280_humidity;BME280_pressure;Samples;Min_cycle;Max_cycle;Signal;HPM_P1;HPM_P2
2023/01/17 00:01:44;;;;;;;2.70;2.50;;;3.70;99.90;;;;;;4990474;28;20194;-66
2023/01/17 00:09:52;;;;;;;2.93;2.70;;;3.70;99.90;;;;;;4972418;28;20604;-65
2023/01/17 00:12:19;;;;;;;3.77;2.20;;;3.60;99.90;;;;;;4972734;28;20275;-65
2023/01/17 00:14:46;;;;;;;3.00;2.70;;;3.60;99.90;;;;;;4973032;28;20262;-65
2023/01/17 00:17:12;;;;;;;3.33;2.40;;;3.50;99.90;;;;;;4979154;28;20189;-65
2023/01/17 01:35:02;;;;;;;3.83;3.47;;;2.80;99.90;;;;;;4974051;28;20308;-66
2023/01/17 01:37:27;;;;;;;6.03;2.80;;;2.80;99.90;;;;;;4975600;28;20267;-65
2023/01/17 01:39:53;;;;;;;2.53;2.33;;;2.80;99.90;;;;;;4974464;28;20197;-66
2023/01/17 01:42:19;;;;;;;3.43;3.23;;;2.70;99.90;;;;;;4989410;28;20189;-66
2023/01/17 01:44:50;;;;;;;3.13;2.93;;;2.60;99.90;;;;;;4993411;28;20196;-66
2023/01/17 01:47:21;;;;;;;3.27;2.93;;;2.60;99.90;;;;;;4978689;28;20188;-65
2023/01/17 01:49:48;;;;;;;7.30;3.47;;;2.70;99.90;;;;;;4988595;28;20641;-66
2023/01/17 01:52:15;;;;;;;3.33;3.03;;;2.70;99.90;;;;;;4977202;28;20207;-66
2023/01/17 01:54:58;;;;;;;10.03;3.93;;;2.70;99.90;;;;;;4984264;28;20673;-66
2023/01/17 01:57:30;;;;;;;3.73;3.43;;;2.70;99.90;;;;;;4988956;28;20212;-66
2023/01/17 01:59:59;;;;;;;6.23;3.90;;;2.60;99.90;;;;;;4975112;28;20216;-65
2023/01/17 02:02:28;;;;;;;4.37;3.97;;;2.70;99.90;;;;;;4975295;28;20240;-66
2023/01/17 02:04:54;;;;;;;6.20;4.40;;;2.70;99.90;;;;;;4993295;28;20645;-66
2023/01/17 02:07:28;;;;;;;5.10;3.47;;;2.60;99.90;;;;;;4975041;28;20219;-68
2023/01/17 02:09:53;;;;;;;4.47;3.97;;;2.70;99.90;;;;;;4989917;28;20188;-67
2023/01/17 02:12:20;;;;;;;3.87;3.47;;;2.60;99.90;;;;;;4975577;28;20272;-66
2023/01/17 02:14:46;;;;;;;3.33;3.03;;;2.60;99.90;;;;;;4974174;28;20712;-66
2023/01/17 02:17:16;;;;;;;3.77;3.53;;;2.70;99.90;;;;;;4973838;28;20185;-66
2023/01/17 02:20:03;;;;;;;4.23;3.67;;;2.60;99.90;;;;;;4983433;28;20192;-66
2023/01/17 02:23:01;;;;;;;4.53;4.13;;;2.50;99.90;;;;;;4978575;28;20169;-66
2023/01/17 02:25:38;;;;;;;3.73;3.43;;;2.30;99.90;;;;;;4970710;28;20208;-66
2023/01/17 02:28:41;;;;;;;4.97;3.87;;;2.60;99.90;;;;;;4974471;28;20645;-68
2023/01/17 02:31:19;;;;;;;4.67;3.93;;;2.60;99.90;;;;;;4981400;28;20212;-66
2023/01/17 02:34:02;;;;;;;4.17;3.70;;;2.60;99.90;;;;;;4983565;28;20231;-66
2023/01/17 02:36:45;;;;;;;6.80;4.47;;;2.50;99.90;;;;;;4974620;28;20263;-66
2023/01/17 02:39:33;;;;;;;6.90;4.27;;;2.50;99.90;;;;;;4982201;28;20180;-66
2023/01/17 02:42:05;;;;;;;4.67;3.60;;;2.30;99.90;;;;;;4983788;28;20276;-66
2023/01/17 02:44:39;;;;;;;4.10;3.70;;;2.20;99.90;;;;;;4982844;28;20194;-67
2023/01/17 02:47:20;;;;;;;5.33;4.37;;;2.30;99.90;;;;;;4981600;28;20183;-66
2023/01/17 02:49:46;;;;;;;4.77;4.47;;;2.30;99.90;;;;;;4974512;28;20184;-66
2023/01/17 02:52:37;;;;;;;8.57;5.87;;;2.30;99.90;;;;;;4984073;28;20215;-66
2023/01/17 02:55:24;;;;;;;4.43;3.73;;;2.40;99.90;;;;;;4973768;28;20642;-66
2023/01/17 02:57:58;;;;;;;6.07;5.27;;;2.30;99.90;;;;;;4974337;28;20181;-66
2023/01/17 03:01:02;;;;;;;9.60;5.60;;;2.20;99.90;;;;;;4977786;28;20192;-67
2023/01/17 03:03:46;;;;;;;6.70;5.73;;;2.20;99.90;;;;;;4956890;28;20231;-66
2023/01/17 03:06:21;;;;;;;6.20;4.63;;;2.30;99.90;;;;;;4979560;28;20176;-66
2023/01/17 03:08:49;;;;;;;4.90;4.33;;;2.20;99.90;;;;;;4990323;28;20310;-66
2023/01/17 03:11:15;;;;;;;7.33;5.47;;;2.20;99.90;;;;;;4991311;28;20301;-66
2023/01/17 03:13:41;;;;;;;6.10;5.60;;;2.10;99.90;;;;;;4982106;28;20271;-66
2023/01/17 03:16:29;;;;;;;8.43;5.93;;;2.10;99.90;;;;;;4983560;28;20224;-66
2023/01/17 03:18:55;;;;;;;5.47;4.83;;;2.10;99.90;;;;;;4989303;28;20188;-66
2023/01/17 03:21:22;;;;;;;6.63;4.93;;;2.10;99.90;;;;;;4991077;28;20274;-66
2023/01/17 03:23:48;;;;;;;5.60;5.10;;;2.10;99.90;;;;;;4981095;28;20632;-66
2023/01/17 03:26:14;;;;;;;9.27;5.47;;;1.90;99.90;;;;;;4984219;28;20189;-70
2023/01/17 03:28:39;;;;;;;12.03;6.60;;;1.90;99.90;;;;;;4988418;28;20549;-66
2023/01/17 03:31:05;;;;;;;8.57;5.57;;;2.10;99.90;;;;;;4985308;28;20195;-66
2023/01/17 03:33:31;;;;;;;6.07;5.30;;;2.00;99.90;;;;;;4990332;28;20276;-67
2023/01/17 03:35:57;;;;;;;8.50;6.00;;;1.80;99.90;;;;;;4964298;28;20224;-66
2023/01/17 03:38:27;;;;;;;11.07;4.83;;;1.90;99.90;;;;;;4987444;28;20196;-67
2023/01/17 03:40:53;;;;;;;7.30;5.77;;;2.00;99.90;;;;;;4985369;28;20238;-67
2023/01/17 03:43:18;;;;;;;5.90;4.50;;;1.90;99.90;;;;;;4986557;28;20603;-66
2023/01/17 03:45:47;;;;;;;7.90;6.03;;;1.90;99.90;;;;;;4975513;28;20185;-67
2023/01/17 03:48:13;;;;;;;8.47;4.50;;;1.80;99.90;;;;;;4973791;28;20645;-67
2023/01/17 03:50:38;;;;;;;9.37;5.43;;;1.80;99.90;;;;;;4972117;28;20195;-66
2023/01/17 03:53:04;;;;;;;7.53;6.70;;;1.70;99.90;;;;;;4973741;28;20723;-67
2023/01/17 03:55:30;;;;;;;10.47;5.67;;;1.60;99.90;;;;;;4987790;28;20574;-67
2023/01/17 03:57:55;;;;;;;7.30;4.80;;;1.50;99.90;;;;;;4978998;28;20551;-67
2023/01/17 04:00:21;;;;;;;6.30;4.87;;;1.70;99.90;;;;;;4983548;28;20188;-66
2023/01/17 04:02:47;;;;;;;4.13;3.73;;;1.90;99.90;;;;;;4987564;28;20188;-66
2023/01/17 04:05:13;;;;;;;8.50;6.03;;;1.80;99.90;;;;;;4979348;28;20198;-66
2023/01/17 04:07:38;;;;;;;8.07;5.73;;;1.70;99.90;;;;;;4994366;28;20578;-67
2023/01/17 04:10:05;;;;;;;5.20;4.67;;;1.80;99.90;;;;;;4983104;28;20679;-66
2023/01/17 04:12:30;;;;;;;8.30;5.13;;;1.90;99.90;;;;;;4995081;28;20712;-68
2023/01/17 04:14:56;;;;;;;6.03;5.30;;;1.80;99.90;;;;;;4980710;28;20299;-66
2023/01/17 04:17:22;;;;;;;6.43;5.47;;;1.60;99.90;;;;;;4985874;28;20649;-66
2023/01/17 04:19:48;;;;;;;8.33;5.53;;;1.50;99.90;;;;;;4992113;28;20183;-66
2023/01/17 04:22:13;;;;;;;7.60;5.37;;;1.70;99.90;;;;;;4976944;28;20212;-67
2023/01/17 04:24:39;;;;;;;5.60;4.67;;;1.70;99.90;;;;;;4977686;28;20706;-67
2023/01/17 04:27:05;;;;;;;8.63;5.40;;;1.70;99.90;;;;;;4994128;28;20199;-66
2023/01/17 04:29:30;;;;;;;13.73;5.73;;;1.60;99.90;;;;;;4978450;28;20627;-69
2023/01/17 04:31:56;;;;;;;5.23;4.73;;;1.80;99.90;;;;;;5008266;28;20598;-66
2023/01/17 04:34:22;;;;;;;9.20;6.27;;;1.70;99.90;;;;;;4991175;28;20287;-66
2023/01/17 04:36:47;;;;;;;9.17;5.57;;;1.70;99.90;;;;;;4959413;28;20235;-66
2023/01/17 04:39:13;;;;;;;7.97;6.47;;;1.70;99.90;;;;;;4976874;28;20197;-66
2023/01/17 04:41:39;;;;;;;12.50;6.90;;;1.70;99.90;;;;;;4984464;28;20196;-66
2023/01/17 04:44:04;;;;;;;6.30;4.77;;;1.60;99.90;;;;;;4975877;28;20566;-66
2023/01/17 04:46:30;;;;;;;10.87;6.27;;;1.60;99.90;;;;;;4976677;28;20650;-66
2023/01/17 04:48:56;;;;;;;8.67;5.93;;;1.50;99.90;;;;;;4992023;28;20599;-66
2023/01/17 04:51:22;;;;;;;10.97;5.87;;;1.50;99.90;;;;;;4984768;28;20713;-66
2023/01/17 04:53:47;;;;;;;8.93;6.13;;;1.50;99.90;;;;;;4976727;28;20573;-66
2023/01/17 04:56:13;;;;;;;5.53;5.00;;;1.40;99.90;;;;;;4976839;28;20319;-66
2023/01/17 04:58:39;;;;;;;10.07;5.73;;;1.40;99.90;;;;;;4976366;28;20217;-66
2023/01/17 05:01:06;;;;;;;8.50;5.70;;;1.50;99.90;;;;;;4981489;28;20268;-66
2023/01/17 05:03:33;;;;;;;9.47;5.97;;;1.40;99.90;;;;;;4976786;28;20538;-66
2023/01/17 05:05:59;;;;;;;9.30;5.93;;;1.30;99.90;;;;;;4990134;28;20271;-67
2023/01/17 05:08:25;;;;;;;7.00;5.80;;;1.30;99.90;;;;;;4984074;28;20296;-66
2023/01/17 05:10:51;;;;;;;9.40;5.87;;;1.40;99.90;;;;;;4963096;28;20195;-66
2023/01/17 05:13:17;;;;;;;9.53;6.20;;;1.40;99.90;;;;;;4983981;28;20184;-66
2023/01/17 05:15:43;;;;;;;7.03;5.47;;;1.70;99.90;;;;;;4976271;28;20209;-66
2023/01/17 05:18:16;;;;;;;7.30;5.23;;;1.70;99.90;;;;;;4975227;28;20729;-67
2023/01/17 05:20:42;;;;;;;10.53;4.80;;;1.60;99.90;;;;;;4976229;28;20189;-66
2023/01/17 05:23:08;;;;;;;5.87;4.83;;;1.50;99.90;;;;;;4975439;28;20183;-67
2023/01/17 05:25:34;;;;;;;10.73;6.20;;;1.40;99.90;;;;;;4974541;28;20228;-67
2023/01/17 05:28:01;;;;;;;5.87;5.37;;;1.40;99.90;;;;;;4989605;28;20657;-67
2023/01/17 05:30:28;;;;;;;7.50;4.90;;;1.50;99.90;;;;;;4978587;28;20189;-67
2023/01/17 05:32:55;;;;;;;6.50;5.67;;;1.40;99.90;;;;;;4985766;28;20192;-67
2023/01/17 05:35:24;;;;;;;7.30;4.53;;;1.50;99.90;;;;;;4987421;28;20234;-66
2023/01/17 05:37:50;;;;;;;11.73;5.50;;;1.70;99.90;;;;;;4978828;28;20610;-67
2023/01/17 05:40:18;;;;;;;9.80;6.10;;;1.70;99.90;;;;;;4986776;28;20531;-67
2023/01/17 05:42:48;;;;;;;5.17;3.93;;;1.80;99.90;;;;;;4975866;28;20196;-67
2023/01/17 05:45:15;;;;;;;6.23;5.27;;;1.80;99.90;;;;;;4992221;28;20202;-66
2023/01/17 05:47:49;;;;;;;9.77;6.07;;;1.70;99.90;;;;;;4979903;28;20645;-67
2023/01/17 05:50:17;;;;;;;7.67;5.13;;;1.70;99.90;;;;;;4989004;28;20188;-67
2023/01/17 05:52:49;;;;;;;12.07;6.53;;;1.50;99.90;;;;;;4986543;28;20232;-67
2023/01/17 05:55:15;;;;;;;5.50;4.80;;;1.50;99.90;;;;;;4989287;28;20327;-67
2023/01/17 05:57:41;;;;;;;7.97;5.90;;;1.60;99.90;;;;;;4981624;28;20189;-67
2023/01/17 06:00:08;;;;;;;5.47;4.97;;;1.40;99.90;;;;;;4980281;28;20195;-67
2023/01/17 06:02:33;;;;;;;7.40;5.97;;;1.30;99.90;;;;;;4990018;28;20224;-67
2023/01/17 06:04:59;;;;;;;6.80;5.40;;;1.20;99.90;;;;;;4975517;28;20651;-67
2023/01/17 06:07:25;;;;;;;10.20;5.90;;;1.20;99.90;;;;;;4987950;28;20188;-67
2023/01/17 06:09:50;;;;;;;7.20;6.53;;;1.20;99.90;;;;;;4976180;28;20192;-67
2023/01/17 06:12:16;;;;;;;6.97;5.10;;;1.10;99.90;;;;;;4981072;28;20188;-67
2023/01/17 06:14:42;;;;;;;6.83;4.97;;;1.10;99.90;;;;;;4979919;28;20668;-67
2023/01/17 06:17:07;;;;;;;5.13;4.63;;;1.00;99.90;;;;;;4990051;28;20242;-67
2023/01/17 06:19:33;;;;;;;10.03;5.20;;;1.00;99.90;;;;;;4979797;28;20197;-67
2023/01/17 06:21:58;;;;;;;11.53;6.20;;;1.20;99.90;;;;;;4982833;28;20188;-67
2023/01/17 06:24:24;;;;;;;11.13;7.17;;;1.20;99.90;;;;;;4988599;28;20270;-67
2023/01/17 06:26:50;;;;;;;9.90;5.83;;;1.50;99.90;;;;;;4974602;28;20196;-67
2023/01/17 06:29:15;;;;;;;9.87;5.23;;;1.40;99.90;;;;;;4974676;28;20267;-67
2023/01/17 06:31:41;;;;;;;11.70;5.53;;;1.30;99.90;;;;;;4990329;28;20640;-67
2023/01/17 06:34:07;;;;;;;7.40;5.23;;;1.10;99.90;;;;;;4990852;28;20688;-67
2023/01/17 06:36:32;;;;;;;9.27;6.03;;;1.00;99.90;;;;;;4975901;28;20220;-67
2023/01/17 06:38:58;;;;;;;10.97;5.20;;;0.90;99.90;;;;;;4984903;28;20227;-67
2023/01/17 06:41:24;;;;;;;6.07;5.23;;;0.90;99.90;;;;;;4984540;28;20196;-67
2023/01/17 06:43:54;;;;;;;3.87;3.13;;;0.80;99.90;;;;;;4991544;28;20188;-67
2023/01/17 06:46:20;;;;;;;4.07;3.67;;;0.80;99.90;;;;;;4974720;28;20184;-67
2023/01/17 06:48:47;;;;;;;5.90;4.93;;;0.80;99.90;;;;;;4982506;28;20554;-67
2023/01/17 06:51:14;;;;;;;8.20;4.93;;;0.80;99.90;;;;;;4991344;28;20540;-68
2023/01/17 06:53:40;;;;;;;5.50;4.53;;;0.80;99.90;;;;;;4986261;28;20234;-67
2023/01/17 06:56:06;;;;;;;4.87;4.47;;;0.70;99.90;;;;;;4987653;28;20239;-67
2023/01/17 06:58:32;;;;;;;7.03;5.30;;;0.70;99.90;;;;;;4987110;28;20208;-67
2023/01/17 07:00:57;;;;;;;8.33;4.80;;;0.70;99.90;;;;;;4980873;28;20980;-68
2023/01/17 07:03:25;;;;;;;7.60;4.77;;;0.70;99.90;;;;;;4985720;28;20599;-68
2023/01/17 07:05:51;;;;;;;6.50;5.80;;;0.70;99.90;;;;;;4975463;28;20200;-68
2023/01/17 07:08:18;;;;;;;7.37;5.63;;;0.70;99.90;;;;;;4979516;28;20180;-67
2023/01/17 07:10:45;;;;;;;8.47;5.00;;;0.80;99.90;;;;;;4980464;28;20195;-67
2023/01/17 07:13:12;;;;;;;8.07;6.00;;;0.70;99.90;;;;;;4974543;28;20187;-68
2023/01/17 07:15:38;;;;;;;7.97;6.07;;;0.70;99.90;;;;;;4982023;28;20216;-67
2023/01/17 07:18:05;;;;;;;12.47;6.23;;;0.70;99.90;;;;;;4975464;28;20308;-67
2023/01/17 07:20:32;;;;;;;4.57;4.17;;;0.70;99.90;;;;;;4980516;28;20176;-67
2023/01/17 07:22:58;;;;;;;8.77;6.33;;;0.70;99.90;;;;;;4981010;28;20188;-67
2023/01/17 07:25:24;;;;;;;9.00;5.87;;;0.70;99.90;;;;;;4980233;28;20192;-67
2023/01/17 07:27:56;;;;;;;8.80;5.07;;;0.60;99.90;;;;;;4985125;28;20239;-68
2023/01/17 07:30:22;;;;;;;13.80;6.70;;;0.60;99.90;;;;;;4987217;28;20271;-68
2023/01/17 07:32:52;;;;;;;6.23;5.63;;;0.60;99.90;;;;;;4979233;28;20184;-69
2023/01/17 07:35:17;;;;;;;8.97;4.77;;;0.60;99.90;;;;;;4982181;28;20239;-69
2023/01/17 07:37:50;;;;;;;8.97;6.07;;;0.70;99.90;;;;;;4974296;28;20681;-67
2023/01/17 07:40:17;;;;;;;5.50;5.00;;;0.70;99.90;;;;;;4972001;28;20649;-69
2023/01/17 07:42:46;;;;;;;7.17;4.87;;;0.70;99.90;;;;;;4972324;28;20188;-69
2023/01/17 07:45:13;;;;;;;9.17;6.60;;;0.60;99.90;;;;;;4961056;28;20199;-69
2023/01/17 07:47:38;;;;;;;6.00;5.33;;;0.60;99.90;;;;;;4990295;28;20188;-69
2023/01/17 07:50:05;;;;;;;7.43;5.17;;;0.60;99.90;;;;;;4962556;28;20200;-70
2023/01/17 07:52:31;;;;;;;9.07;7.17;;;0.60;99.90;;;;;;4988605;28;20275;-69
2023/01/17 07:54:57;;;;;;;5.27;4.73;;;0.60;99.90;;;;;;4972316;28;20307;-67
2023/01/17 07:57:22;;;;;;;7.90;7.00;;;0.60;99.90;;;;;;4970840;28;20185;-69
2023/01/17 07:59:51;;;;;;;10.80;6.40;;;0.60;99.90;;;;;;4989573;28;20235;-71
2023/01/17 08:02:19;;;;;;;6.70;5.90;;;0.60;99.90;;;;;;4973990;28;20541;-70
2023/01/17 08:04:45;;;;;;;6.27;5.53;;;0.60;99.90;;;;;;4980359;28;20234;-70
2023/01/17 08:07:12;;;;;;;7.53;6.83;;;0.70;99.90;;;;;;4971995;28;20649;-70
2023/01/17 08:09:42;;;;;;;11.97;7.00;;;0.70;99.90;;;;;;4973551;28;20192;-70
2023/01/17 08:12:08;;;;;;;6.23;5.63;;;1.00;99.90;;;;;;4979039;28;20185;-70
2023/01/17 08:14:34;;;;;;;7.57;5.53;;;1.00;99.90;;;;;;4974726;28;20681;-71
2023/01/17 08:17:11;;;;;;;8.57;6.93;;;0.90;99.90;;;;;;4985398;28;20247;-71
2023/01/17 08:19:37;;;;;;;7.20;6.47;;;0.80;99.90;;;;;;4982926;28;20223;-71
2023/01/17 08:22:03;;;;;;;7.53;5.70;;;0.80;99.90;;;;;;4980889;28;20661;-71
2023/01/17 08:24:29;;;;;;;9.27;7.50;;;0.80;99.90;;;;;;4988240;28;20334;-70
2023/01/17 08:26:55;;;;;;;10.87;5.70;;;0.80;99.90;;;;;;4985071;28;20223;-71
2023/01/17 08:29:21;;;;;;;6.60;5.17;;;0.80;99.90;;;;;;4973583;28;20184;-70
2023/01/17 08:31:46;;;;;;;7.00;6.33;;;1.00;99.90;;;;;;4985068;28;20184;-71
2023/01/17 08:34:15;;;;;;;8.87;6.27;;;1.00;99.90;;;;;;4987271;28;20212;-70
2023/01/17 08:36:46;;;;;;;6.80;6.17;;;1.10;99.90;;;;;;4979704;28;20189;-69
2023/01/17 08:39:13;;;;;;;6.73;5.00;;;1.20;99.90;;;;;;4973768;28;20192;-73
2023/01/17 08:41:39;;;;;;;10.27;6.13;;;1.30;99.90;;;;;;4972790;28;20235;-71
2023/01/17 08:44:05;;;;;;;10.63;6.57;;;1.20;99.90;;;;;;4981243;28;20652;-71
2023/01/17 08:46:31;;;;;;;9.03;6.87;;;1.10;99.90;;;;;;4982428;28;20661;-70
2023/01/17 08:48:58;;;;;;;12.47;8.17;;;1.10;99.90;;;;;;4988159;28;20520;-68
2023/01/17 08:51:26;;;;;;;11.57;7.73;;;1.10;99.90;;;;;;4983750;28;20414;-72
2023/01/17 08:53:52;;;;;;;8.17;7.10;;;1.20;99.90;;;;;;4992267;28;21511;-70
2023/01/17 08:56:18;;;;;;;8.83;6.87;;;1.60;99.90;;;;;;4989833;28;20206;-71
2023/01/17 08:58:44;;;;;;;14.17;8.87;;;1.80;99.90;;;;;;4986279;28;20633;-70
2023/01/17 09:01:09;;;;;;;10.17;7.90;;;1.80;99.90;;;;;;4990150;28;20227;-70
2023/01/17 09:03:35;;;;;;;11.90;7.37;;;1.70;99.90;;;;;;4986314;28;20193;-70
2023/01/17 09:06:05;;;;;;;13.00;8.93;;;1.80;99.90;;;;;;4981119;28;20188;-70
2023/01/17 09:08:31;;;;;;;10.67;7.47;;;1.80;99.90;;;;;;4991974;28;20558;-70
2023/01/17 09:10:57;;;;;;;11.30;8.17;;;1.80;99.90;;;;;;4981393;28;20192;-70
2023/01/17 09:13:23;;;;;;;11.53;8.70;;;1.80;99.90;;;;;;4978908;28;20648;-69
2023/01/17 09:15:48;;;;;;;12.80;7.97;;;1.70;99.90;;;;;;4983789;28;20212;-71
2023/01/17 09:18:14;;;;;;;15.47;7.80;;;1.70;99.90;;;;;;4989001;28;20238;-69
2023/01/17 09:20:40;;;;;;;14.97;10.17;;;1.90;99.90;;;;;;4981661;28;20208;-69
2023/01/17 09:23:05;;;;;;;11.10;6.93;;;1.90;99.90;;;;;;4982836;28;20719;-70
2023/01/17 09:25:31;;;;;;;12.90;9.30;;;1.80;99.90;;;;;;4976325;28;20192;-70
2023/01/17 09:27:57;;;;;;;14.03;7.90;;;1.80;99.90;;;;;;4980751;28;20222;-70
2023/01/17 09:30:22;;;;;;;12.27;8.43;;;1.80;99.90;;;;;;4980899;28;20199;-70
2023/01/17 09:32:54;;;;;;;11.03;8.87;;;1.80;99.90;;;;;;4987048;28;20239;-69
2023/01/17 09:35:20;;;;;;;12.73;9.27;;;1.80;99.90;;;;;;4975685;28;20252;-70
2023/01/17 09:37:50;;;;;;;17.23;11.17;;;1.80;99.90;;;;;;4975650;28;20255;-70
2023/01/17 09:40:23;;;;;;;9.77;8.60;;;1.80;99.90;;;;;;4979460;28;20184;-70
2023/01/17 09:42:56;;;;;;;13.37;9.17;;;1.90;99.90;;;;;;4983282;28;20272;-70
2023/01/17 09:45:25;;;;;;;10.40;8.03;;;1.90;99.90;;;;;;4979911;28;20191;-70
2023/01/17 09:47:53;;;;;;;12.53;8.03;;;2.00;99.90;;;;;;4990032;28;20191;-70
2023/01/17 09:50:42;;;;;;;12.87;8.13;;;2.20;99.90;;;;;;4985856;28;20522;-70
2023/01/17 09:53:19;;;;;;;10.97;9.00;;;2.30;99.90;;;;;;4989461;28;20282;-69
2023/01/17 09:55:54;;;;;;;11.90;7.43;;;2.40;99.90;;;;;;4974564;28;20207;-69
2023/01/17 09:58:28;;;;;;;9.70;7.77;;;2.40;99.90;;;;;;4978420;28;20184;-69
2023/01/17 10:01:06;;;;;;;8.63;7.27;;;2.40;99.90;;;;;;4984962;28;20189;-69
2023/01/17 10:03:39;;;;;;;10.23;7.57;;;2.50;99.90;;;;;;4975540;28;20187;-69
2023/01/17 10:06:40;;;;;;;6.47;5.37;;;2.60;99.90;;;;;;4987397;28;20194;-70
2023/01/17 10:09:33;;;;;;;9.77;7.63;;;2.70;99.90;;;;;;4975361;28;20527;-69
2023/01/17 10:12:20;;;;;;;14.50;7.60;;;2.70;99.90;;;;;;4974951;28;20663;-69
2023/01/17 10:14:49;;;;;;;7.60;5.03;;;2.70;99.90;;;;;;4988664;28;20291;-70
2023/01/17 10:17:55;;;;;;;6.27;5.23;;;2.90;99.90;;;;;;4980535;28;20192;-69
2023/01/17 10:20:35;;;;;;;7.23;5.60;;;3.00;99.90;;;;;;4980948;28;20184;-69
2023/01/17 10:23:24;;;;;;;6.93;5.53;;;3.20;99.90;;;;;;4974783;28;20185;-69
2023/01/17 10:26:07;;;;;;;8.73;6.87;;;3.10;99.90;;;;;;4976075;28;20211;-70
2023/01/17 10:28:45;;;;;;;9.97;6.33;;;3.30;99.90;;;;;;4989365;28;20179;-69
2023/01/17 10:31:25;;;;;;;9.07;4.53;;;3.20;99.90;;;;;;4985114;28;20760;-69
2023/01/17 10:34:04;;;;;;;6.67;5.53;;;3.20;99.90;;;;;;4975707;28;20180;-69
2023/01/17 10:36:36;;;;;;;7.23;5.63;;;3.00;99.90;;;;;;4988888;28;20190;-69
2023/01/17 10:39:18;;;;;;;7.43;5.67;;;3.00;99.90;;;;;;4981824;28;20195;-69
2023/01/17 10:41:50;;;;;;;8.53;6.20;;;3.00;99.90;;;;;;4976947;28;20196;-70
2023/01/17 10:44:34;;;;;;;11.13;7.33;;;3.00;99.90;;;;;;4979489;28;20581;-70
2023/01/17 10:47:08;;;;;;;8.20;5.93;;;3.00;99.90;;;;;;4978123;28;20578;-69
2023/01/17 10:49:38;;;;;;;5.33;4.50;;;3.00;99.90;;;;;;4977432;28;20191;-70
2023/01/17 10:52:29;;;;;;;6.67;5.57;;;3.20;99.90;;;;;;4990672;28;20277;-69
2023/01/17 10:55:13;;;;;;;8.30;6.40;;;3.20;99.90;;;;;;4992816;28;20270;-70
2023/01/17 10:57:42;;;;;;;11.33;6.30;;;3.20;99.90;;;;;;4978518;28;20212;-70
2023/01/17 11:00:17;;;;;;;11.00;6.70;;;3.20;99.90;;;;;;4982010;28;20270;-70
2023/01/17 11:02:49;;;;;;;7.10;6.43;;;3.20;99.90;;;;;;4973940;28;20218;-69
2023/01/17 11:05:23;;;;;;;7.10;6.03;;;3.30;99.90;;;;;;4974562;28;20235;-69
2023/01/17 11:08:07;;;;;;;8.57;5.33;;;3.30;99.90;;;;;;4974865;28;20187;-70
2023/01/17 11:10:38;;;;;;;9.67;4.77;;;3.30;99.90;;;;;;4984258;28;20180;-69
2023/01/17 11:13:25;;;;;;;8.80;4.63;;;3.30;99.90;;;;;;4988883;28;20179;-70
2023/01/17 11:15:59;;;;;;;5.17;4.60;;;3.30;99.90;;;;;;4978615;28;20243;-69
2023/01/17 11:18:28;;;;;;;10.17;5.57;;;3.30;99.90;;;;;;4973018;28;20515;-69
2023/01/17 11:21:10;;;;;;;10.83;5.63;;;3.40;99.90;;;;;;4982597;28;20203;-69
2023/01/17 11:23:36;;;;;;;8.60;6.07;;;3.40;99.90;;;;;;4974386;28;20219;-69
2023/01/17 11:26:06;;;;;;;5.50;4.30;;;3.30;99.90;;;;;;4992347;28;20192;-71
2023/01/17 11:28:40;;;;;;;7.07;5.53;;;3.30;99.90;;;;;;4973298;28;20644;-69
2023/01/17 11:31:24;;;;;;;12.83;4.70;;;3.40;99.90;;;;;;4986142;28;20584;-69
2023/01/17 11:34:14;;;;;;;6.87;5.23;;;3.50;99.90;;;;;;4981304;28;20180;-69
2023/01/17 11:36:39;;;;;;;8.43;4.87;;;3.40;99.90;;;;;;4973782;28;20230;-69
2023/01/17 11:39:26;;;;;;;8.67;6.53;;;3.50;99.90;;;;;;4973895;28;20213;-69
2023/01/17 11:41:52;;;;;;;8.83;4.60;;;3.50;99.90;;;;;;4983810;28;20192;-69
2023/01/17 11:44:31;;;;;;;9.57;5.03;;;3.40;99.90;;;;;;4974127;28;20223;-69
2023/01/17 11:47:23;;;;;;;9.37;6.53;;;3.50;99.90;;;;;;4979851;28;20196;-69
2023/01/17 11:49:49;;;;;;;14.73;7.27;;;3.70;99.90;;;;;;4970037;28;20200;-71
2023/01/17 11:52:22;;;;;;;9.73;7.03;;;4.00;99.90;;;;;;4988963;28;20282;-69
2023/01/17 11:54:49;;;;;;;8.70;6.07;;;3.90;99.90;;;;;;4973875;28;20212;-69
2023/01/17 11:57:35;;;;;;;9.77;6.17;;;3.80;99.90;;;;;;4985140;28;20176;-69
2023/01/17 12:00:36;;;;;;;6.40;5.37;;;3.90;99.90;;;;;;4981713;28;20227;-68
2023/01/17 12:03:24;;;;;;;6.90;5.60;;;3.90;99.90;;;;;;4976838;28;20176;-69
2023/01/17 12:06:02;;;;;;;11.73;6.10;;;4.00;99.90;;;;;;4973410;28;20666;-70
2023/01/17 12:08:55;;;;;;;7.07;5.30;;;3.80;99.90;;;;;;4986137;28;20187;-70
2023/01/17 12:11:30;;;;;;;9.40;5.93;;;3.90;99.90;;;;;;4973500;28;20248;-70
2023/01/17 12:14:15;;;;;;;9.00;6.30;;;3.80;99.90;;;;;;4982765;28;20702;-70
2023/01/17 12:17:21;;;;;;;8.93;5.30;;;3.70;99.90;;;;;;4973082;28;20652;-69
2023/01/17 12:20:09;;;;;;;11.17;6.13;;;3.60;99.90;;;;;;4979783;28;20235;-69
2023/01/17 12:22:37;;;;;;;4.87;4.40;;;3.80;99.90;;;;;;4977536;28;20192;-69
2023/01/17 12:25:34;;;;;;;7.03;4.47;;;3.90;99.90;;;;;;4975984;28;20208;-70
2023/01/17 12:28:28;;;;;;;8.93;4.17;;;4.00;99.90;;;;;;4989197;28;20195;-70
2023/01/17 12:30:56;;;;;;;5.37;4.87;;;4.20;99.90;;;;;;4977145;28;20216;-70
2023/01/17 12:33:44;;;;;;;11.47;4.73;;;4.20;99.90;;;;;;4989177;28;20263;-69
2023/01/17 12:36:42;;;;;;;6.30;4.97;;;4.10;99.90;;;;;;4984466;28;20562;-69
2023/01/17 12:39:12;;;;;;;7.40;4.13;;;4.00;99.90;;;;;;4991918;28;20180;-70
2023/01/17 12:41:59;;;;;;;4.93;4.20;;;4.20;99.90;;;;;;4989433;28;20654;-70
2023/01/17 12:44:46;;;;;;;4.00;3.07;;;4.10;99.90;;;;;;4989417;28;20200;-70
2023/01/17 12:47:14;;;;;;;4.03;3.10;;;4.20;99.90;;;;;;4993857;28;20218;-69
2023/01/17 12:50:05;;;;;;;2.53;2.27;;;4.30;99.90;;;;;;4987488;28;20188;-69
2023/01/17 12:52:31;;;;;;;5.60;2.90;;;4.10;99.90;;;;;;4983362;28;20614;-70
2023/01/17 12:55:01;;;;;;;4.17;2.90;;;4.00;99.90;;;;;;4990930;28;20304;-70
2023/01/17 12:57:39;;;;;;;3.03;2.27;;;4.00;99.90;;;;;;4990758;28;20189;-69
2023/01/17 13:00:16;;;;;;;3.80;2.40;;;4.00;99.90;;;;;;4976590;28;20212;-70
2023/01/17 13:02:52;;;;;;;4.27;2.07;;;4.10;99.90;;;;;;4976685;28;20184;-69
2023/01/17 13:05:22;;;;;;;2.83;1.97;;;4.00;99.90;;;;;;4976910;28;20204;-69
2023/01/17 13:08:18;;;;;;;2.00;1.90;;;4.10;99.90;;;;;;4976209;28;20181;-70
2023/01/17 13:11:09;;;;;;;3.67;2.37;;;4.00;99.90;;;;;;4986047;28;20684;-69
2023/01/17 13:13:35;;;;;;;1.83;1.73;;;3.90;99.90;;;;;;4979511;28;20181;-69
2023/01/17 13:16:23;;;;;;;3.60;2.17;;;4.00;99.90;;;;;;4980688;28;20225;-70
2023/01/17 13:18:50;;;;;;;2.23;2.07;;;4.20;99.90;;;;;;4976121;28;20255;-69
2023/01/17 13:21:30;;;;;;;5.87;2.23;;;4.30;99.90;;;;;;4982435;28;20215;-70
2023/01/17 13:23:57;;;;;;;4.80;2.23;;;4.30;99.90;;;;;;4976371;28;20184;-70
2023/01/17 13:26:32;;;;;;;1.53;1.50;;;4.20;99.90;;;;;;4989062;28;20227;-70
2023/01/17 13:29:19;;;;;;;3.37;1.67;;;4.20;99.90;;;;;;4975949;28;20195;-70
2023/01/17 13:31:50;;;;;;;1.83;1.47;;;4.00;99.90;;;;;;4975435;28;20181;-70
2023/01/17 13:34:32;;;;;;;8.80;1.97;;;4.00;99.90;;;;;;4975917;28;20547;-70
2023/01/17 13:37:16;;;;;;;4.30;1.50;;;4.10;99.90;;;;;;4989571;28;20231;-70
2023/01/17 13:39:53;;;;;;;5.07;2.03;;;4.20;99.90;;;;;;4976453;28;20181;-70
2023/01/17 13:42:39;;;;;;;2.10;2.00;;;4.10;99.90;;;;;;4976007;28;20190;-70
2023/01/17 13:45:16;;;;;;;5.80;2.07;;;4.10;99.90;;;;;;4977298;28;20181;-70
2023/01/17 13:47:42;;;;;;;2.20;1.50;;;4.20;99.90;;;;;;4984067;28;20200;-69
2023/01/17 13:50:35;;;;;;;3.97;1.67;;;4.30;99.90;;;;;;4976723;28;20654;-70
2023/01/17 13:53:33;;;;;;;1.60;1.50;;;4.40;99.90;;;;;;4992996;28;20203;-70
2023/01/17 13:56:20;;;;;;;3.37;1.70;;;4.40;99.90;;;;;;4981358;28;20214;-70
2023/01/17 13:58:56;;;;;;;2.53;1.80;;;4.50;99.90;;;;;;4980074;28;20185;-70
2023/01/17 14:01:22;;;;;;;5.23;1.63;;;4.50;99.90;;;;;;4989676;28;20199;-70
2023/01/17 14:03:51;;;;;;;4.17;2.03;;;4.40;99.90;;;;;;4984424;28;20188;-70
2023/01/17 14:06:35;;;;;;;3.10;1.93;;;4.30;99.90;;;;;;4975000;28;20192;-70
2023/01/17 14:09:06;;;;;;;2.00;1.90;;;4.30;99.90;;;;;;4974446;28;20185;-70
2023/01/17 14:11:35;;;;;;;2.53;1.93;;;4.20;99.90;;;;;;4974925;28;20189;-70
2023/01/17 14:14:39;;;;;;;3.33;2.40;;;4.20;99.90;;;;;;4979749;28;20196;-70
2023/01/17 14:17:21;;;;;;;1.83;1.73;;;4.20;99.90;;;;;;4968406;28;20704;-70
2023/01/17 14:19:51;;;;;;;3.33;2.13;;;4.20;99.90;;;;;;4988959;28;20642;-70
2023/01/17 14:22:17;;;;;;;4.83;2.00;;;4.20;99.90;;;;;;4975043;28;20193;-70
2023/01/17 14:25:08;;;;;;;4.60;2.17;;;4.10;99.90;;;;;;4987189;28;20287;-70
2023/01/17 14:27:44;;;;;;;2.73;2.40;;;4.10;99.90;;;;;;4971629;28;20240;-70
2023/01/17 14:30:16;;;;;;;4.80;2.07;;;4.20;99.90;;;;;;4986081;28;20257;-70
2023/01/17 14:33:00;;;;;;;1.90;1.80;;;4.20;99.90;;;;;;4988745;28;20235;-70
2023/01/17 14:35:39;;;;;;;2.17;2.07;;;4.30;99.90;;;;;;4975193;28;20208;-70
2023/01/17 14:38:27;;;;;;;3.57;2.17;;;4.30;99.90;;;;;;4988766;28;20191;-70
2023/01/17 14:41:28;;;;;;;2.00;1.90;;;4.20;99.90;;;;;;4974772;28;20234;-70
2023/01/17 14:43:55;;;;;;;2.00;1.57;;;4.20;99.90;;;;;;4942619;28;20269;-70